sensor_id;sensor_type;location;lat;lon;timestamp;temperature;humidity
20463;DHT22;10390;53.566;9.980;2023-02-28T00:00:06;24.30;1.00
20463;DHT22;10390;53.566;9.980;2023-02-28T00:02:36;24.30;1.00
20463;DHT22;10390;53.566;9.980;2023-02-28T00:05:01;24.30;1.00
20463;DHT22;10390;53.566;9.980;2023-02-28T00:07:29;24.30;1.00
20463;DHT22;10390;53.566;9.980;2023-02-28T00:09:55;24.20;1.00
20463;DHT22;10390;53.566;9.980;2023-02-28T00:12:21;24.20;1.00
20463;DHT22;10390;53.566;9.980;2023-02-28T00:14:46;24.20;1.00
20463;DHT22;10390;53.566;9.980;2023-02-28T00:17:12;24.10;1.00
20463;DHT22;10390;53.566;9.980;2023-02-28T00:19:38;24.10;1.00
20463;DHT22;10390;53.566;9.980;2023-02-28T00:22:03;24.10;1.00
20463;DHT22;10390;53.566;9.980;2023-02-28T00:24:29;24.20;1.00
20463;DHT22;10390;53.566;9.980;2023-02-28T00:26:54;24.20;1.00
20463;DHT22;10390;53.566;9.980;2023-02-28T00:29:20;24.30;1.00
20463;DHT22;10390;53.566;9.980;2023-02-28T00:31:45;24.30;1.00
20463;DHT22;10390;53.566;9.980;2023-02-28T00:34:11;24.40;1.00
20463;DHT22;10390;53.566;9.980;2023-02-28T00:36:36;24.50;1.00
20463;DHT22;10390;53.566;9.980;2023-02-28T00:39:02;24.50;1.00
20463;DHT22;10390;53.566;9.980;2023-02-28T00:41:28;24.60;1.00
20463;DHT22;10390;53.566;9.980;2023-02-28T00:43:53;24.60;1.00
20463;DHT22;10390;53.566;9.980;2023-02-28T00:46:19;24.70;1.00
20463;DHT22;10390;53.566;9.980;2023-02-28T00:48:44;24.60;1.00
20463;DHT22;10390;53.566;9.980;2023-02-28T00:51:10;24.60;1.00
20463;DHT22;10390;53.566;9.980;2023-02-28T00:53:35;24.60;1.00
20463;DHT22;10390;53.566;9.980;2023-02-28T00:56:01;24.50;1.00
20463;DHT22;10390;53.566;9.980;2023-02-28T00:58:27;24.50;1.00
20463;DHT22;10390;53.566;9.980;2023-02-28T01:00:53;24.50;1.00
20463;DHT22;10390;53.566;9.980;2023-02-28T01:03:20;24.40;1.00
20463;DHT22;10390;53.566;9.980;2023-02-28T01:05:46;24.40;1.00
20463;DHT22;10390;53.566;9.980;2023-02-28T01:08:12;24.30;1.00
20463;DHT22;10390;53.566;9.980;2023-02-28T01:10:39;24.30;1.00
20463;DHT22;10390;53.566;9.980;2023-02-28T01:13:05;24.30;1.00
20463;DHT22;10390;53.566;9.980;2023-02-28T01:15:31;24.30;1.00
20463;DHT22;10390;53.566;9.980;2023-02-28T01:17:57;24.20;1.00
20463;DHT22;10390;53.566;9.980;2023-02-28T01:20:23;24.20;1.00
20463;DHT22;10390;53.566;9.980;2023-02-28T01:22:49;24.10;1.00
20463;DHT22;10390;53.566;9.980;2023-02-28T01:25:14;24.20;1.00
20463;DHT22;10390;53.566;9.980;2023-02-28T01:27:40;24.10;1.00
20463;DHT22;10390;53.566;9.980;2023-02-28T01:30:09;24.00;1.00
20463;DHT22;10390;53.566;9.980;2023-02-28T01:32:36;24.00;1.00
20463;DHT22;10390;53.566;9.980;2023-02-28T01:35:02;24.00;1.00
20463;DHT22;10390;53.566;9.980;2023-02-28T01:37:27;24.00;1.00
20463;DHT22;10390;53.566;9.980;2023-02-28T01:39:53;24.00;1.00
20463;DHT22;10390;53.566;9.980;2023-02-28T01:42:19;24.10;1.00
20463;DHT22;10390;53.566;9.980;2023-02-28T01:47:40;24.20;1.00
20463;DHT22;10390;53.566;9.980;2023-02-28T01:50:11;24.30;1.00
20463;DHT22;10390;53.566;9.980;2023-02-28T01:52:38;24.40;1.00
20463;DHT22;10390;53.566;9.980;2023-02-28T01:55:05;24.50;1.00
20463;DHT22;10390;53.566;9.980;2023-02-28T01:57:39;24.50;1.00
20463;DHT22;10390;53.566;9.980;2023-02-28T02:00:15;24.60;1.00
20463;DHT22;10390;53.566;9.980;2023-02-28T02:02:44;24.60;1.00
20463;DHT22;10390;53.566;9.980;2023-02-28T02:05:15;24.60;1.00
20463;DHT22;10390;53.566;9.980;2023-02-28T02:07:43;24.70;1.00
20463;DHT22;10390;53.566;9.980;2023-02-28T02:15:34;24.50;1.00
20463;DHT22;10390;53.566;9.980;2023-02-28T02:26:53;24.30;1.00
20463;DHT22;10390;53.566;9.980;2023-02-28T02:37:38;24.10;1.00
20463;DHT22;10390;53.566;9.980;2023-02-28T02:40:20;24.10;1.00
20463;DHT22;10390;53.566;9.980;2023-02-28T02:45:59;24.00;1.00
20463;DHT22;10390;53.566;9.980;2023-02-28T02:48:30;24.00;1.00
20463;DHT22;10390;53.566;9.980;2023-02-28T02:50:59;23.90;1.00
20463;DHT22;10390;53.566;9.980;2023-02-28T02:53:39;23.90;1.00
20463;DHT22;10390;53.566;9.980;2023-02-28T02:56:07;24.00;1.00
20463;DHT22;10390;53.566;9.980;2023-02-28T02:58:37;24.00;1.00
20463;DHT22;10390;53.566;9.980;2023-02-28T03:01:09;24.00;1.00
20463;DHT22;10390;53.566;9.980;2023-02-28T03:03:35;24.20;1.00
20463;DHT22;10390;53.566;9.980;2023-02-28T03:06:02;24.30;1.00
20463;DHT22;10390;53.566;9.980;2023-02-28T03:08:31;24.30;1.00
20463;DHT22;10390;53.566;9.980;2023-02-28T03:11:01;24.40;1.00
20463;DHT22;10390;53.566;9.980;2023-02-28T03:28:08;24.50;1.00
20463;DHT22;10390;53.566;9.980;2023-02-28T03:30:23;24.40;1.00
20463;DHT22;10390;53.566;9.980;2023-02-28T03:32:58;24.40;1.00
20463;DHT22;10390;53.566;9.980;2023-02-28T03:35:29;24.40;1.00
20463;DHT22;10390;53.566;9.980;2023-02-28T03:38:14;24.30;1.00
20463;DHT22;10390;53.566;9.980;2023-02-28T03:40:46;24.30;1.00
20463;DHT22;10390;53.566;9.980;2023-02-28T03:43:17;24.20;1.00
20463;DHT22;10390;53.566;9.980;2023-02-28T03:45:45;24.20;1.00
20463;DHT22;10390;53.566;9.980;2023-02-28T03:48:25;24.20;1.00
20463;DHT22;10390;53.566;9.980;2023-02-28T03:50:55;24.10;1.00
20463;DHT22;10390;53.566;9.980;2023-02-28T03:53:30;24.00;1.00
20463;DHT22;10390;53.566;9.980;2023-02-28T03:56:08;24.00;1.00
20463;DHT22;10390;53.566;9.980;2023-02-28T04:01:54;24.00;1.00
20463;DHT22;10390;53.566;9.980;2023-02-28T04:04:21;23.90;1.00
20463;DHT22;10390;53.566;9.980;2023-02-28T04:06:52;23.80;1.00
20463;DHT22;10390;53.566;9.980;2023-02-28T04:09:18;23.90;1.00
20463;DHT22;10390;53.566;9.980;2023-02-28T04:11:51;23.80;1.00
20463;DHT22;10390;53.566;9.980;2023-02-28T04:14:17;23.90;1.00
20463;DHT22;10390;53.566;9.980;2023-02-28T04:16:43;24.00;1.00
20463;DHT22;10390;53.566;9.980;2023-02-28T04:19:10;24.10;1.00
20463;DHT22;10390;53.566;9.980;2023-02-28T04:21:41;24.20;1.00
20463;DHT22;10390;53.566;9.980;2023-02-28T04:24:09;24.30;1.00
20463;DHT22;10390;53.566;9.980;2023-02-28T04:26:40;24.30;1.00
20463;DHT22;10390;53.566;9.980;2023-02-28T04:29:06;24.50;1.00
20463;DHT22;10390;53.566;9.980;2023-02-28T04:31:33;24.50;1.00
20463;DHT22;10390;53.566;9.980;2023-02-28T04:33:59;24.50;1.00
20463;DHT22;10390;53.566;9.980;2023-02-28T04:36:25;24.60;1.00
20463;DHT22;10390;53.566;9.980;2023-02-28T04:38:51;24.50;1.00
20463;DHT22;10390;53.566;9.980;2023-02-28T04:41:17;24.50;1.00
20463;DHT22;10390;53.566;9.980;2023-02-28T04:43:43;24.50;1.00
20463;DHT22;10390;53.566;9.980;2023-02-28T04:46:09;24.50;1.00
20463;DHT22;10390;53.566;9.980;2023-02-28T04:48:37;24.40;1.00
20463;DHT22;10390;53.566;9.980;2023-02-28T04:51:11;24.30;1.00
20463;DHT22;10390;53.566;9.980;2023-02-28T04:53:38;24.30;1.00
20463;DHT22;10390;53.566;9.980;2023-02-28T04:56:06;24.30;1.00
20463;DHT22;10390;53.566;9.980;2023-02-28T04:58:32;24.20;1.00
20463;DHT22;10390;53.566;9.980;2023-02-28T05:01:26;24.20;1.00
20463;DHT22;10390;53.566;9.980;2023-02-28T05:03:52;24.10;1.00
20463;DHT22;10390;53.566;9.980;2023-02-28T05:06:18;24.10;1.00
20463;DHT22;10390;53.566;9.980;2023-02-28T05:08:44;24.00;1.00
20463;DHT22;10390;53.566;9.980;2023-02-28T05:11:16;24.00;1.00
20463;DHT22;10390;53.566;9.980;2023-02-28T05:13:43;24.00;1.00
20463;DHT22;10390;53.566;9.980;2023-02-28T05:16:09;23.90;1.00
20463;DHT22;10390;53.566;9.980;2023-02-28T05:18:34;23.90;1.00
20463;DHT22;10390;53.566;9.980;2023-02-28T05:21:00;23.80;1.00
20463;DHT22;10390;53.566;9.980;2023-02-28T05:23:27;23.80;1.00
20463;DHT22;10390;53.566;9.980;2023-02-28T05:25:53;23.80;1.00
20463;DHT22;10390;53.566;9.980;2023-02-28T05:28:20;23.80;1.00
20463;DHT22;10390;53.566;9.980;2023-02-28T05:30:46;23.90;1.00
20463;DHT22;10390;53.566;9.980;2023-02-28T05:33:12;24.00;1.00
20463;DHT22;10390;53.566;9.980;2023-02-28T05:35:39;24.10;1.00
20463;DHT22;10390;53.566;9.980;2023-02-28T05:38:05;24.20;1.00
20463;DHT22;10390;53.566;9.980;2023-02-28T05:40:30;24.30;1.00
20463;DHT22;10390;53.566;9.980;2023-02-28T05:42:56;24.30;1.00
20463;DHT22;10390;53.566;9.980;2023-02-28T05:45:21;24.40;1.00
20463;DHT22;10390;53.566;9.980;2023-02-28T05:47:47;24.50;1.00
20463;DHT22;10390;53.566;9.980;2023-02-28T05:50:13;24.50;1.00
20463;DHT22;10390;53.566;9.980;2023-02-28T05:52:38;24.50;1.00
20463;DHT22;10390;53.566;9.980;2023-02-28T05:55:04;24.50;1.00
20463;DHT22;10390;53.566;9.980;2023-02-28T05:57:30;24.50;1.00
20463;DHT22;10390;53.566;9.980;2023-02-28T05:59:55;24.40;1.00
20463;DHT22;10390;53.566;9.980;2023-02-28T06:02:21;24.40;1.00
20463;DHT22;10390;53.566;9.980;2023-02-28T06:04:47;24.40;1.00
20463;DHT22;10390;53.566;9.980;2023-02-28T06:07:12;24.30;1.00
20463;DHT22;10390;53.566;9.980;2023-02-28T06:09:38;24.20;1.00
20463;DHT22;10390;53.566;9.980;2023-02-28T06:12:05;24.20;1.00
20463;DHT22;10390;53.566;9.980;2023-02-28T06:14:33;24.20;1.00
20463;DHT22;10390;53.566;9.980;2023-02-28T06:17:00;24.10;1.00
20463;DHT22;10390;53.566;9.980;2023-02-28T06:19:26;24.10;1.00
20463;DHT22;10390;53.566;9.980;2023-02-28T06:21:53;24.10;1.00
20463;DHT22;10390;53.566;9.980;2023-02-28T06:24:20;24.00;1.00
20463;DHT22;10390;53.566;9.980;2023-02-28T06:26:46;24.00;1.00
20463;DHT22;10390;53.566;9.980;2023-02-28T06:29:11;23.90;1.00
20463;DHT22;10390;53.566;9.980;2023-02-28T06:31:37;23.90;1.00
20463;DHT22;10390;53.566;9.980;2023-02-28T06:34:04;23.90;1.00
20463;DHT22;10390;53.566;9.980;2023-02-28T06:36:29;23.80;1.00
20463;DHT22;10390;53.566;9.980;2023-02-28T06:38:55;23.80;1.00
20463;DHT22;10390;53.566;9.980;2023-02-28T06:41:23;23.80;1.00
20463;DHT22;10390;53.566;9.980;2023-02-28T06:43:48;23.80;1.00
20463;DHT22;10390;53.566;9.980;2023-02-28T06:46:14;23.80;1.00
20463;DHT22;10390;53.566;9.980;2023-02-28T06:48:40;23.90;1.00
20463;DHT22;10390;53.566;9.980;2023-02-28T06:51:15;24.00;1.00
20463;DHT22;10390;53.566;9.980;2023-02-28T06:53:42;24.10;1.00
20463;DHT22;10390;53.566;9.980;2023-02-28T06:56:10;24.20;1.00
20463;DHT22;10390;53.566;9.980;2023-02-28T06:58:37;24.30;1.00
20463;DHT22;10390;53.566;9.980;2023-02-28T07:01:03;24.30;1.00
20463;DHT22;10390;53.566;9.980;2023-02-28T07:03:29;24.30;1.00
20463;DHT22;10390;53.566;9.980;2023-02-28T07:05:55;24.40;1.00
20463;DHT22;10390;53.566;9.980;2023-02-28T07:08:23;24.40;1.00
20463;DHT22;10390;53.566;9.980;2023-02-28T07:10:52;24.40;1.00
20463;DHT22;10390;53.566;9.980;2023-02-28T07:13:18;24.40;1.00
20463;DHT22;10390;53.566;9.980;2023-02-28T07:15:44;24.30;1.00
20463;DHT22;10390;53.566;9.980;2023-02-28T07:18:09;24.30;1.00
20463;DHT22;10390;53.566;9.980;2023-02-28T07:20:35;24.30;1.00
20463;DHT22;10390;53.566;9.980;2023-02-28T07:23:01;24.30;1.00
20463;DHT22;10390;53.566;9.980;2023-02-28T07:25:28;24.20;1.00
20463;DHT22;10390;53.566;9.980;2023-02-28T07:27:55;24.20;1.00
20463;DHT22;10390;53.566;9.980;2023-02-28T07:30:21;24.20;1.00
20463;DHT22;10390;53.566;9.980;2023-02-28T07:32:47;24.20;1.00
20463;DHT22;10390;53.566;9.980;2023-02-28T07:35:12;24.20;1.00
20463;DHT22;10390;53.566;9.980;2023-02-28T07:37:41;24.20;1.00
20463;DHT22;10390;53.566;9.980;2023-02-28T07:40:09;24.20;1.00
20463;DHT22;10390;53.566;9.980;2023-02-28T07:42:40;24.10;1.00
20463;DHT22;10390;53.566;9.980;2023-02-28T07:45:07;24.10;1.00
20463;DHT22;10390;53.566;9.980;2023-02-28T07:47:32;24.10;1.00
20463;DHT22;10390;53.566;9.980;2023-02-28T07:49:58;24.10;1.00
20463;DHT22;10390;53.566;9.980;2023-02-28T07:52:24;24.10;1.00
20463;DHT22;10390;53.566;9.980;2023-02-28T07:54:50;24.10;1.00
20463;DHT22;10390;53.566;9.980;2023-02-28T07:57:16;24.10;1.00
20463;DHT22;10390;53.566;9.980;2023-02-28T07:59:42;24.10;1.00
20463;DHT22;10390;53.566;9.980;2023-02-28T08:02:17;24.10;1.00
20463;DHT22;10390;53.566;9.980;2023-02-28T08:04:44;24.10;1.00
20463;DHT22;10390;53.566;9.980;2023-02-28T08:07:10;24.00;1.00
20463;DHT22;10390;53.566;9.980;2023-02-28T08:09:39;24.00;1.00
20463;DHT22;10390;53.566;9.980;2023-02-28T08:12:05;24.00;1.00
20463;DHT22;10390;53.566;9.980;2023-02-28T08:14:31;24.00;1.00
20463;DHT22;10390;53.566;9.980;2023-02-28T08:16:56;24.00;1.00
20463;DHT22;10390;53.566;9.980;2023-02-28T08:19:22;24.10;1.00
20463;DHT22;10390;53.566;9.980;2023-02-28T08:21:47;24.10;1.00
20463;DHT22;10390;53.566;9.980;2023-02-28T08:24:13;24.10;1.00
20463;DHT22;10390;53.566;9.980;2023-02-28T08:26:38;24.20;1.00
20463;DHT22;10390;53.566;9.980;2023-02-28T08:29:04;24.20;1.00
20463;DHT22;10390;53.566;9.980;2023-02-28T08:31:30;24.20;1.00
20463;DHT22;10390;53.566;9.980;2023-02-28T08:33:55;24.30;1.00
20463;DHT22;10390;53.566;9.980;2023-02-28T08:36:25;24.30;1.00
20463;DHT22;10390;53.566;9.980;2023-02-28T08:38:53;24.30;1.00
20463;DHT22;10390;53.566;9.980;2023-02-28T08:41:19;24.40;1.00
20463;DHT22;10390;53.566;9.980;2023-02-28T08:43:44;24.40;1.00
20463;DHT22;10390;53.566;9.980;2023-02-28T08:46:12;24.50;1.00
20463;DHT22;10390;53.566;9.980;2023-02-28T08:48:38;24.50;1.00
20463;DHT22;10390;53.566;9.980;2023-02-28T08:51:09;24.50;1.00
20463;DHT22;10390;53.566;9.980;2023-02-28T08:53:36;24.60;1.00
20463;DHT22;10390;53.566;9.980;2023-02-28T08:56:11;24.70;1.00
20463;DHT22;10390;53.566;9.980;2023-02-28T08:58:37;24.70;1.00
20463;DHT22;10390;53.566;9.980;2023-02-28T09:01:20;24.80;1.00
20463;DHT22;10390;53.566;9.980;2023-02-28T09:03:48;24.80;1.00
20463;DHT22;10390;53.566;9.980;2023-02-28T09:06:15;24.80;1.00
20463;DHT22;10390;53.566;9.980;2023-02-28T09:08:41;24.90;1.00
20463;DHT22;10390;53.566;9.980;2023-02-28T09:11:07;24.90;1.00
20463;DHT22;10390;53.566;9.980;2023-02-28T09:13:33;25.00;1.00
20463;DHT22;10390;53.566;9.980;2023-02-28T09:16:00;25.00;1.00
20463;DHT22;10390;53.566;9.980;2023-02-28T09:18:26;25.00;1.00
20463;DHT22;10390;53.566;9.980;2023-02-28T09:20:52;25.10;1.00
20463;DHT22;10390;53.566;9.980;2023-02-28T09:23:18;25.10;1.00
20463;DHT22;10390;53.566;9.980;2023-02-28T09:25:52;25.10;1.00
20463;DHT22;10390;53.566;9.980;2023-02-28T09:28:19;25.10;1.00
20463;DHT22;10390;53.566;9.980;2023-02-28T09:30:47;25.20;1.00
20463;DHT22;10390;53.566;9.980;2023-02-28T09:33:13;25.30;1.00
20463;DHT22;10390;53.566;9.980;2023-02-28T09:35:39;25.30;1.00
20463;DHT22;10390;53.566;9.980;2023-02-28T09:38:05;25.30;1.00
20463;DHT22;10390;53.566;9.980;2023-02-28T09:40:40;25.30;1.00
20463;DHT22;10390;53.566;9.980;2023-02-28T09:43:13;25.30;1.00
20463;DHT22;10390;53.566;9.980;2023-02-28T09:45:41;25.40;1.00
20463;DHT22;10390;53.566;9.980;2023-02-28T09:48:16;25.40;1.00
20463;DHT22;10390;53.566;9.980;2023-02-28T09:50:49;25.40;1.00
20463;DHT22;10390;53.566;9.980;2023-02-28T09:53:25;25.40;1.00
20463;DHT22;10390;53.566;9.980;2023-02-28T09:55:55;25.40;1.00
20463;DHT22;10390;53.566;9.980;2023-02-28T09:58:27;25.50;1.00
20463;DHT22;10390;53.566;9.980;2023-02-28T10:01:09;25.50;1.00
20463;DHT22;10390;53.566;9.980;2023-02-28T10:03:47;25.50;1.00
20463;DHT22;10390;53.566;9.980;2023-02-28T10:06:26;25.50;1.00
20463;DHT22;10390;53.566;9.980;2023-02-28T10:11:29;25.60;1.00
20463;DHT22;10390;53.566;9.980;2023-02-28T10:14:16;25.60;1.00
20463;DHT22;10390;53.566;9.980;2023-02-28T10:16:44;25.60;1.00
20463;DHT22;10390;53.566;9.980;2023-02-28T10:19:14;25.60;1.00
20463;DHT22;10390;53.566;9.980;2023-02-28T10:24:39;25.60;1.00
20463;DHT22;10390;53.566;9.980;2023-02-28T10:29:51;25.50;1.00
20463;DHT22;10390;53.566;9.980;2023-02-28T10:32:20;25.60;1.00
20463;DHT22;10390;53.566;9.980;2023-02-28T10:37:32;25.60;1.00
20463;DHT22;10390;53.566;9.980;2023-02-28T10:40:04;25.60;1.00
20463;DHT22;10390;53.566;9.980;2023-02-28T10:42:31;25.60;1.00
20463;DHT22;10390;53.566;9.980;2023-02-28T10:45:16;25.60;1.00
20463;DHT22;10390;53.566;9.980;2023-02-28T10:47:56;25.60;1.00
20463;DHT22;10390;53.566;9.980;2023-02-28T10:50:44;25.60;1.00
20463;DHT22;10390;53.566;9.980;2023-02-28T10:55:36;25.60;1.00
20463;DHT22;10390;53.566;9.980;2023-02-28T10:58:02;25.70;1.00
20463;DHT22;10390;53.566;9.980;2023-02-28T11:00:34;25.60;1.00
20463;DHT22;10390;53.566;9.980;2023-02-28T11:03:00;25.60;1.00
20463;DHT22;10390;53.566;9.980;2023-02-28T11:07:53;25.70;1.00
20463;DHT22;10390;53.566;9.980;2023-02-28T11:10:20;25.70;1.00
20463;DHT22;10390;53.566;9.980;2023-02-28T11:12:47;25.70;1.00
20463;DHT22;10390;53.566;9.980;2023-02-28T11:15:30;25.70;1.00
20463;DHT22;10390;53.566;9.980;2023-02-28T11:20:48;25.70;1.00
20463;DHT22;10390;53.566;9.980;2023-02-28T11:23:15;25.70;1.00
20463;DHT22;10390;53.566;9.980;2023-02-28T11:25:50;25.70;1.00
20463;DHT22;10390;53.566;9.980;2023-02-28T11:28:31;25.70;1.00
20463;DHT22;10390;53.566;9.980;2023-02-28T11:33:54;25.70;1.00
20463;DHT22;10390;53.566;9.980;2023-02-28T11:36:27;25.70;1.00
20463;DHT22;10390;53.566;9.980;2023-02-28T11:38:54;25.70;1.00
20463;DHT22;10390;53.566;9.980;2023-02-28T11:46:52;25.70;1.00
20463;DHT22;10390;53.566;9.980;2023-02-28T11:52:33;25.70;1.00
20463;DHT22;10390;53.566;9.980;2023-02-28T11:55:24;25.70;1.00
20463;DHT22;10390;53.566;9.980;2023-02-28T12:03:56;25.60;1.00
20463;DHT22;10390;53.566;9.980;2023-02-28T12:06:40;25.70;1.00
20463;DHT22;10390;53.566;9.980;2023-02-28T12:13:05;25.60;1.00
20463;DHT22;10390;53.566;9.980;2023-02-28T12:15:14;25.60;1.00
20463;DHT22;10390;53.566;9.980;2023-02-28T12:18:04;25.60;1.00
20463;DHT22;10390;53.566;9.980;2023-02-28T12:20:38;25.60;1.00
20463;DHT22;10390;53.566;9.980;2023-02-28T12:29:14;25.60;1.00
20463;DHT22;10390;53.566;9.980;2023-02-28T12:31:48;25.60;1.00
20463;DHT22;10390;53.566;9.980;2023-02-28T12:34:39;25.50;1.00
20463;DHT22;10390;53.566;9.980;2023-02-28T12:37:16;25.50;1.00
20463;DHT22;10390;53.566;9.980;2023-02-28T12:39:50;25.50;1.00
20463;DHT22;10390;53.566;9.980;2023-02-28T12:42:29;25.50;1.00
20463;DHT22;10390;53.566;9.980;2023-02-28T12:45:02;25.50;1.00
20463;DHT22;10390;53.566;9.980;2023-02-28T12:47:29;25.50;1.00
20463;DHT22;10390;53.566;9.980;2023-02-28T12:50:08;25.50;1.00
20463;DHT22;10390;53.566;9.980;2023-02-28T12:53:00;25.50;1.00
20463;DHT22;10390;53.566;9.980;2023-02-28T12:58:43;25.50;1.00
20463;DHT22;10390;53.566;9.980;2023-02-28T13:09:55;25.30;1.00
20463;DHT22;10390;53.566;9.980;2023-02-28T13:12:22;25.20;1.00
20463;DHT22;10390;53.566;9.980;2023-02-28T13:14:49;25.20;1.00
20463;DHT22;10390;53.566;9.980;2023-02-28T13:17:21;25.10;1.00
20463;DHT22;10390;53.566;9.980;2023-02-28T13:22:20;25.10;1.00
20463;DHT22;10390;53.566;9.980;2023-02-28T13:25:01;25.10;1.00
20463;DHT22;10390;53.566;9.980;2023-02-28T13:27:38;25.10;1.00
20463;DHT22;10390;53.566;9.980;2023-02-28T13:33:23;25.10;1.00
20463;DHT22;10390;53.566;9.980;2023-02-28T13:38:37;25.10;1.00
20463;DHT22;10390;53.566;9.980;2023-02-28T13:51:50;25.10;1.00
20463;DHT22;10390;53.566;9.980;2023-02-28T13:54:43;25.20;1.00
20463;DHT22;10390;53.566;9.980;2023-02-28T14:06:31;25.10;1.00
20463;DHT22;10390;53.566;9.980;2023-02-28T14:09:21;25.00;1.00
20463;DHT22;10390;53.566;9.980;2023-02-28T14:11:48;25.00;1.00
20463;DHT22;10390;53.566;9.980;2023-02-28T14:16:58;24.90;1.00
20463;DHT22;10390;53.566;9.980;2023-02-28T14:19:26;24.90;1.00
20463;DHT22;10390;53.566;9.980;2023-02-28T14:22:10;24.90;1.00
20463;DHT22;10390;53.566;9.980;2023-02-28T14:36:45;24.80;1.00
20463;DHT22;10390;53.566;9.980;2023-02-28T14:39:16;24.80;1.00
20463;DHT22;10390;53.566;9.980;2023-02-28T14:41:43;24.70;1.00
20463;DHT22;10390;53.566;9.980;2023-02-28T14:44:27;24.70;1.00
20463;DHT22;10390;53.566;9.980;2023-02-28T14:46:55;24.70;1.00
20463;DHT22;10390;53.566;9.980;2023-02-28T14:52:22;24.70;1.00
20463;DHT22;10390;53.566;9.980;2023-02-28T14:54:52;24.70;1.00
20463;DHT22;10390;53.566;9.980;2023-02-28T14:57:33;24.70;1.00
20463;DHT22;10390;53.566;9.980;2023-02-28T15:00:13;24.80;1.00
20463;DHT22;10390;53.566;9.980;2023-02-28T15:02:40;24.80;1.00
20463;DHT22;10390;53.566;9.980;2023-02-28T15:07:35;24.90;1.00
20463;DHT22;10390;53.566;9.980;2023-02-28T15:10:15;25.00;1.00
20463;DHT22;10390;53.566;9.980;2023-02-28T15:12:47;25.00;1.00
20463;DHT22;10390;53.566;9.980;2023-02-28T15:15:18;25.10;1.00
20463;DHT22;10390;53.566;9.980;2023-02-28T15:17:46;25.10;1.00
20463;DHT22;10390;53.566;9.980;2023-02-28T15:20:14;25.10;1.00
20463;DHT22;10390;53.566;9.980;2023-02-28T15:22:40;25.10;1.00
20463;DHT22;10390;53.566;9.980;2023-02-28T15:25:07;25.10;1.00
20463;DHT22;10390;53.566;9.980;2023-02-28T15:27:40;25.20;1.00
20463;DHT22;10390;53.566;9.980;2023-02-28T15:30:15;25.10;1.00
20463;DHT22;10390;53.566;9.980;2023-02-28T15:32:42;25.10;1.00
20463;DHT22;10390;53.566;9.980;2023-02-28T15:37:57;25.10;1.00
20463;DHT22;10390;53.566;9.980;2023-02-28T15:40:36;25.00;1.00
20463;DHT22;10390;53.566;9.980;2023-02-28T15:43:22;25.00;1.00
20463;DHT22;10390;53.566;9.980;2023-02-28T15:45:57;25.00;1.00
20463;DHT22;10390;53.566;9.980;2023-02-28T15:48:32;24.90;1.00
20463;DHT22;10390;53.566;9.980;2023-02-28T15:53:37;24.90;1.00
20463;DHT22;10390;53.566;9.980;2023-02-28T15:56:06;24.90;1.00
20463;DHT22;10390;53.566;9.980;2023-02-28T15:58:37;24.80;1.00
20463;DHT22;10390;53.566;9.980;2023-02-28T16:01:17;24.80;1.00
20463;DHT22;10390;53.566;9.980;2023-02-28T16:03:47;24.80;1.00
20463;DHT22;10390;53.566;9.980;2023-02-28T16:06:28;24.80;1.00
20463;DHT22;10390;53.566;9.980;2023-02-28T16:08:56;24.70;1.00
20463;DHT22;10390;53.566;9.980;2023-02-28T16:11:22;24.70;1.00
20463;DHT22;10390;53.566;9.980;2023-02-28T16:13:48;24.70;1.00
20463;DHT22;10390;53.566;9.980;2023-02-28T16:16:19;24.70;1.00
20463;DHT22;10390;53.566;9.980;2023-02-28T16:18:46;24.70;1.00
20463;DHT22;10390;53.566;9.980;2023-02-28T16:21:11;24.70;1.00
20463;DHT22;10390;53.566;9.980;2023-02-28T16:23:37;24.70;1.00
20463;DHT22;10390;53.566;9.980;2023-02-28T16:26:03;24.70;1.00
20463;DHT22;10390;53.566;9.980;2023-02-28T16:28:34;24.70;1.00
20463;DHT22;10390;53.566;9.980;2023-02-28T16:31:02;24.80;1.00
20463;DHT22;10390;53.566;9.980;2023-02-28T16:33:29;24.80;1.00
20463;DHT22;10390;53.566;9.980;2023-02-28T16:35:55;24.80;1.00
20463;DHT22;10390;53.566;9.980;2023-02-28T16:38:21;24.70;1.00
20463;DHT22;10390;53.566;9.980;2023-02-28T16:40:49;24.80;1.00
20463;DHT22;10390;53.566;9.980;2023-02-28T16:43:18;24.70;1.00
20463;DHT22;10390;53.566;9.980;2023-02-28T16:45:46;24.70;1.00
20463;DHT22;10390;53.566;9.980;2023-02-28T16:48:15;24.70;1.00
20463;DHT22;10390;53.566;9.980;2023-02-28T16:50:41;24.70;1.00
20463;DHT22;10390;53.566;9.980;2023-02-28T16:53:07;24.70;1.00
20463;DHT22;10390;53.566;9.980;2023-02-28T16:55:34;24.70;1.00
20463;DHT22;10390;53.566;9.980;2023-02-28T16:58:02;24.60;1.00
20463;DHT22;10390;53.566;9.980;2023-02-28T17:00:29;24.60;1.00
20463;DHT22;10390;53.566;9.980;2023-02-28T17:02:55;24.60;1.00
20463;DHT22;10390;53.566;9.980;2023-02-28T17:05:21;24.60;1.00
20463;DHT22;10390;53.566;9.980;2023-02-28T17:07:47;24.60;1.00
20463;DHT22;10390;53.566;9.980;2023-02-28T17:12:41;24.60;1.00
20463;DHT22;10390;53.566;9.980;2023-02-28T17:15:08;24.50;1.00
20463;DHT22;10390;53.566;9.980;2023-02-28T17:17:34;24.60;1.00
20463;DHT22;10390;53.566;9.980;2023-02-28T17:20:02;24.50;1.00
20463;DHT22;10390;53.566;9.980;2023-02-28T17:22:28;24.50;1.00
20463;DHT22;10390;53.566;9.980;2023-02-28T17:24:53;24.50;1.00
20463;DHT22;10390;53.566;9.980;2023-02-28T17:27:24;24.40;1.00
20463;DHT22;10390;53.566;9.980;2023-02-28T17:29:50;24.40;1.00
20463;DHT22;10390;53.566;9.980;2023-02-28T17:32:16;24.40;1.00
20463;DHT22;10390;53.566;9.980;2023-02-28T17:34:41;24.30;1.00
20463;DHT22;10390;53.566;9.980;2023-02-28T17:37:08;24.30;1.00
20463;DHT22;10390;53.566;9.980;2023-02-28T17:39:34;24.30;1.00
20463;DHT22;10390;53.566;9.980;2023-02-28T17:41:59;24.30;1.00
20463;DHT22;10390;53.566;9.980;2023-02-28T17:44:25;24.30;1.00
20463;DHT22;10390;53.566;9.980;2023-02-28T17:46:52;24.30;1.00
20463;DHT22;10390;53.566;9.980;2023-02-28T17:49:19;24.30;1.00
20463;DHT22;10390;53.566;9.980;2023-02-28T17:51:45;24.30;1.00
20463;DHT22;10390;53.566;9.980;2023-02-28T17:54:10;24.30;1.00
20463;DHT22;10390;53.566;9.980;2023-02-28T17:56:36;24.30;1.00
20463;DHT22;10390;53.566;9.980;2023-02-28T17:59:02;24.30;1.00
20463;DHT22;10390;53.566;9.980;2023-02-28T18:01:27;24.30;1.00
20463;DHT22;10390;53.566;9.980;2023-02-28T18:03:53;24.30;1.00
20463;DHT22;10390;53.566;9.980;2023-02-28T18:06:22;24.30;1.00
20463;DHT22;10390;53.566;9.980;2023-02-28T18:08:49;24.30;1.00
20463;DHT22;10390;53.566;9.980;2023-02-28T18:11:17;24.20;1.00
20463;DHT22;10390;53.566;9.980;2023-02-28T18:13:44;24.30;1.00
20463;DHT22;10390;53.566;9.980;2023-02-28T18:16:11;24.30;1.00
20463;DHT22;10390;53.566;9.980;2023-02-28T18:18:37;24.30;1.00
20463;DHT22;10390;53.566;9.980;2023-02-28T18:21:06;24.30;1.00
20463;DHT22;10390;53.566;9.980;2023-02-28T18:23:33;24.30;1.00
20463;DHT22;10390;53.566;9.980;2023-02-28T18:25:59;24.30;1.00
20463;DHT22;10390;53.566;9.980;2023-02-28T18:28:24;24.30;1.00
20463;DHT22;10390;53.566;9.980;2023-02-28T18:30:50;24.30;1.00
20463;DHT22;10390;53.566;9.980;2023-02-28T18:33:16;24.30;1.00
20463;DHT22;10390;53.566;9.980;2023-02-28T18:35:41;24.30;1.00